Enumclaw, WA

9:58 AM PST on February 08, 2016 (GMT -0800)
MesoWest | | Change Station
CLOSE
Current Station
Personal Weather Station
Location: Naches, WA
Elevation: 6830 ft
Nearby Weather Stations

Elev 6830 ft 46.94 °N, 121.50 °W | Updated 58 minutes ago

Clear
Clear
49.0 °F
Feels Like 49.0 °F
N
3.0
Wind Variable Wind from SSW
Gusts 6.0 mph

Today
High -- | Low -- °F
--% Chance of Precip.
Yesterday
High -- | Low -- °F
Precip. -- in
Pressure 30.71 in
Visibility 7.0 miles
Clouds Clear
Dew Point 31.0 °F
Humidity 49%
Rainfall in
Snow Depth Not available.
7:21 AM 5:19 PM
New Moon, 0% visible
METAR KELN 081753Z AUTO 00000KT 7SM CLR M01/M04 A3064 RMK AO2 SLP397 I6000 T10061039 11006 21061 51007
Pressure 30.71 in
Visibility 7.0 miles
Clouds Clear
Dew Point 31.0 °F
Humidity 49%
Rainfall in
Snow Depth Not available.
7:21 AM 5:19 PM
New Moon, 0% visible
METAR KELN 081753Z AUTO 00000KT 7SM CLR M01/M04 A3064 RMK AO2 SLP397 I6000 T10061039 11006 21061 51007

10-Day Weather Forecast

Almanac

Astronomy

Feb. 08, 2016 Rise Set
Actual Time
Civil Twilight
Nautical Twilight
Astronomical Twilight
Moon
Length of Visible Light
Length of Day
Tomorrow will be .
, % of the Moon is Illuminated

Today's Extremes

State Highs State Lows

Community

WunderPhotos

Upload Photos

1,891,476 photos uploaded!

WunderBlog® & News

Nearby

Air Quality

  Air Quality AQ Index Pollutant
Not available.

Snow Depth

Station Depth Elevation

Earthquake Activity

City Distance Mag. Time & Date
Minimum magnitude displayed is 2.5.

Coastal Water Temperatures

Place Temperature

Stations

Nearby Weather Stations

Station Location Temp. Windchill Dew Point Humidity Wind Precip. Elev Updated Type
                   

Watches & Warnings

There are currently no watches in effect.